This is the latest recevied weather packets stored in our database for station/object KE6RLG. If no packets are shown the sender has not sent any weather packets the latest 10 day(s).
| Time | Temp. | Humidity | Pressure | Rain* | Wind** | Luminosity | Snow |
|---|---|---|---|---|---|---|---|
| 1777869619 | 15° C | 73% | 1014.5 hPa | 0 mm | - | 0 W/m² | - |
| 1777867840 | 15° C | 74% | 1014.2 hPa | 0 mm | - | 0 W/m² | - |
| 1777865720 | 15.56° C | 68% | 1013.8 hPa | 0 mm | - | 0 W/m² | - |
| 1777865120 | 15.56° C | 69% | 1013.8 hPa | 0 mm | - | 0 W/m² | - |
| 1777864519 | 15° C | 69% | 1013.6 hPa | 0 mm | - | 0 W/m² | - |
| 1777863617 | 15° C | 70% | 1013.5 hPa | 0 mm | - | 0 W/m² | - |
| 1777863317 | 15° C | 70% | 1013.5 hPa | 0 mm | - | 0 W/m² | - |
| 1777861238 | 15° C | 74% | 1013.4 hPa | 0 mm | - | 12 W/m² | - |
| 1777857939 | 15.56° C | 71% | 1013.3 hPa | 0 mm | - | 101 W/m² | - |
| 1777857019 | 16.67° C | 67% | 1013.2 hPa | 0 mm | - | 157 W/m² | - |
| 1777856139 | 16.67° C | 65% | 1013.2 hPa | 0 mm | - | 255 W/m² | - |
| 1777855219 | 17.22° C | 62% | 1013.2 hPa | 0 mm | - | 298 W/m² | - |
| 1777854919 | 17.22° C | 63% | 1013 hPa | 0 mm | - | 314 W/m² | - |
| 1777854319 | 17.22° C | 64% | 1013 hPa | 0 mm | - | 348 W/m² | - |
| 1777851020 | 17.22° C | 63% | 1012.8 hPa | 0 mm | - | 539 W/m² | - |
| 1777850441 | 17.78° C | 60% | 1013 hPa | 0 mm | - | 572 W/m² | - |
| 1777848917 | 17.78° C | 61% | 1013.2 hPa | 0 mm | - | 652 W/m² | - |
| 1777845618 | 16.67° C | 65% | 1013.8 hPa | 0 mm | - | 806 W/m² | - |
| 1777845318 | 16.67° C | 66% | 1013.8 hPa | 0 mm | - | 818 W/m² | - |
| 1777843819 | 17.22° C | 63% | 1013.9 hPa | 0 mm | - | 871 W/m² | - |
| 1777840819 | 17.78° C | 63% | 1014 hPa | 0 mm | - | 940 W/m² | - |
| 1777839319 | 17.22° C | 64% | 1014 hPa | 0 mm | - | 974 W/m² | - |
| 1777837220 | 17.22° C | 64% | 1014.1 hPa | 0 mm | - | 985 W/m² | - |
| 1777836920 | 17.22° C | 64% | 1014.2 hPa | 0 mm | - | 985 W/m² | - |
| 1777833318 | 17.78° C | 57% | 1014.4 hPa | 0 mm | - | 727 W/m² | - |
* Rain latest hour (hover to see other rain measurements)
** Current wind speed in m/s (hover to see current wind gust speed)